createdAt,value
2022-09-28T00:01:48.752Z,2.15
2022-09-28T00:04:34.034Z,2.58
2022-09-28T00:07:19.507Z,2.33
2022-09-28T00:10:05.621Z,3.20
2022-09-28T00:12:51.919Z,3.00
2022-09-28T00:15:37.390Z,2.75
2022-09-28T00:18:23.236Z,2.97
2022-09-28T00:21:24.026Z,3.10
2022-09-28T00:24:18.835Z,3.35
2022-09-28T00:27:04.524Z,3.42
2022-09-28T00:29:50.168Z,3.40
2022-09-28T00:32:35.740Z,3.45
2022-09-28T00:35:28.303Z,4.30
2022-09-28T00:38:16.787Z,4.25
2022-09-28T00:41:02.391Z,3.90
2022-09-28T00:43:47.921Z,4.10
2022-09-28T00:46:36.155Z,3.58
2022-09-28T00:49:30.968Z,3.30
2022-09-28T00:52:28.112Z,3.40
2022-09-28T00:55:17.988Z,4.18
2022-09-28T00:58:06.332Z,2.40
2022-09-28T01:00:54.587Z,2.78
2022-09-28T01:03:47.828Z,1.98
2022-09-28T01:06:35.897Z,1.38
2022-09-28T01:09:22.174Z,1.73
2022-09-28T01:12:08.063Z,1.80
2022-09-28T01:14:53.476Z,1.27
2022-09-28T01:18:14.899Z,1.30
2022-09-28T01:21:19.071Z,1.17
2022-09-28T01:24:37.988Z,1.10
2022-09-28T01:27:26.871Z,1.17
2022-09-28T01:30:21.528Z,1.20
2022-09-28T01:33:15.910Z,0.88
2022-09-28T01:36:22.914Z,1.80
2022-09-28T01:39:14.969Z,1.40
2022-09-28T01:42:05.857Z,1.60
2022-09-28T01:44:54.535Z,2.20
2022-09-28T01:47:41.276Z,2.50
2022-09-28T01:50:31.097Z,2.55
2022-09-28T01:53:30.572Z,2.75
2022-09-28T01:56:25.993Z,3.35
2022-09-28T01:59:19.922Z,2.60
2022-09-28T02:02:18.748Z,2.40
2022-09-28T02:05:19.263Z,2.42
2022-09-28T02:08:17.685Z,3.08
2022-09-28T02:11:13.101Z,2.20
2022-09-28T02:14:08.217Z,2.25
2022-09-28T02:16:56.123Z,2.10
2022-09-28T02:19:48.461Z,2.70
2022-09-28T02:23:00.143Z,2.85
2022-09-28T02:25:55.874Z,2.72
2022-09-28T02:28:41.291Z,2.50
2022-09-28T02:31:28.072Z,2.53
2022-09-28T02:34:13.932Z,2.85
2022-09-28T02:37:01.879Z,2.22
2022-09-28T02:39:47.207Z,2.00
2022-09-28T02:42:59.915Z,2.33
2022-09-28T02:45:45.502Z,1.98
2022-09-28T02:48:55.832Z,1.88
2022-09-28T02:52:00.961Z,1.92
2022-09-28T02:55:25.431Z,1.77
2022-09-28T02:58:39.952Z,1.85
2022-09-28T03:04:40.788Z,1.30
2022-09-28T03:07:36.775Z,2.25
2022-09-28T03:10:44.109Z,2.10
2022-09-28T03:13:30.979Z,1.70
2022-09-28T03:16:19.739Z,1.85
2022-09-28T03:19:07.630Z,1.63
2022-09-28T03:21:53.291Z,2.03
2022-09-28T03:24:39.324Z,1.48
2022-09-28T03:27:24.805Z,1.52
2022-09-28T03:30:11.815Z,1.50
2022-09-28T03:33:00.434Z,1.95
2022-09-28T03:35:50.495Z,1.15
2022-09-28T03:38:36.347Z,1.33
2022-09-28T03:41:23.378Z,1.40
2022-09-28T03:44:09.133Z,1.65
2022-09-28T03:46:57.674Z,1.70
2022-09-28T03:49:49.814Z,1.65
2022-09-28T03:52:35.211Z,1.50
2022-09-28T03:55:20.745Z,1.45
2022-09-28T03:58:06.115Z,1.63
2022-09-28T04:00:51.830Z,1.25
2022-09-28T04:03:37.131Z,1.50
2022-09-28T04:06:33.228Z,1.50
2022-09-28T04:09:18.744Z,1.40
2022-09-28T04:12:04.728Z,1.85
2022-09-28T04:14:51.485Z,1.23
2022-09-28T04:17:40.104Z,1.80
2022-09-28T04:20:30.571Z,1.25
2022-09-28T04:23:20.393Z,1.40
2022-09-28T04:26:08.292Z,1.40
2022-09-28T04:29:12.144Z,1.20
2022-09-28T04:32:02.620Z,1.30
2022-09-28T04:34:57.211Z,1.27
2022-09-28T04:37:42.695Z,1.08
2022-09-28T04:40:29.781Z,1.30
2022-09-28T04:43:18.017Z,1.35
2022-09-28T04:46:06.982Z,1.08
2022-09-28T04:49:00.412Z,1.13
2022-09-28T04:52:08.874Z,1.13
2022-09-28T04:54:54.048Z,1.20
2022-09-28T04:57:40.236Z,1.10
2022-09-28T05:00:30.261Z,1.38
2022-09-28T05:03:25.925Z,1.30
2022-09-28T05:06:35.092Z,1.55
2022-09-28T05:09:24.191Z,1.70
2022-09-28T05:12:10.449Z,1.30
2022-09-28T05:14:56.808Z,1.58
2022-09-28T05:17:42.020Z,1.60
2022-09-28T05:20:47.539Z,1.70
2022-09-28T05:23:34.559Z,1.50
2022-09-28T05:26:20.512Z,1.80
2022-09-28T05:29:05.829Z,1.65
2022-09-28T05:32:11.373Z,1.42
2022-09-28T05:35:11.859Z,2.00
2022-09-28T05:38:05.513Z,2.33
2022-09-28T05:40:52.307Z,2.08
2022-09-28T05:43:38.549Z,1.92
2022-09-28T05:46:24.800Z,2.00
2022-09-28T05:49:10.763Z,2.10
2022-09-28T05:51:56.256Z,1.75
2022-09-28T05:54:42.097Z,1.27
2022-09-28T05:57:30.401Z,1.67
2022-09-28T06:00:16.203Z,1.38
2022-09-28T06:03:14.542Z,1.85
2022-09-28T06:06:03.310Z,1.20
2022-09-28T06:08:50.035Z,2.05
2022-09-28T06:11:54.287Z,1.60
2022-09-28T06:14:50.109Z,1.67
2022-09-28T06:17:35.420Z,1.60
2022-09-28T06:20:55.645Z,1.50
2022-09-28T06:23:50.616Z,1.35
2022-09-28T06:26:37.007Z,1.40
2022-09-28T06:29:23.600Z,1.67
2022-09-28T06:32:09.515Z,1.60
2022-09-28T06:34:57.168Z,1.58
2022-09-28T06:37:47.696Z,1.50
2022-09-28T06:40:33.597Z,1.90
2022-09-28T06:43:18.980Z,1.77
2022-09-28T06:46:24.469Z,1.80
2022-09-28T06:49:30.206Z,1.83
2022-09-28T06:52:34.487Z,1.85
2022-09-28T06:55:50.250Z,2.00
2022-09-28T06:58:36.221Z,1.83
2022-09-28T07:01:21.897Z,2.25
2022-09-28T07:04:23.928Z,1.80
2022-09-28T07:07:28.355Z,1.90
2022-09-28T07:10:44.925Z,2.10
2022-09-28T07:13:56.800Z,2.10
2022-09-28T07:17:10.301Z,2.60
2022-09-28T07:19:52.829Z,1.90
2022-09-28T07:22:43.326Z,1.75
2022-09-28T07:25:33.071Z,1.77
2022-09-28T07:28:40.484Z,2.03
2022-09-28T07:31:54.879Z,1.23
2022-09-28T07:34:50.200Z,1.13
2022-09-28T07:37:46.558Z,1.10
2022-09-28T07:40:51.782Z,1.55
2022-09-28T07:43:39.603Z,1.50
2022-09-28T07:46:25.265Z,1.55
2022-09-28T07:49:19.296Z,1.45
2022-09-28T07:52:14.084Z,1.70
2022-09-28T07:55:26.604Z,1.73
2022-09-28T08:01:32.044Z,2.17
2022-09-28T08:04:18.556Z,2.15
2022-09-28T08:07:12.459Z,2.30
2022-09-28T08:09:58.700Z,1.92
2022-09-28T08:12:47.168Z,2.05
2022-09-28T08:16:00.141Z,2.22
2022-09-28T08:18:52.837Z,1.70
2022-09-28T08:21:47.758Z,1.90
2022-09-28T08:24:33.025Z,1.58
2022-09-28T08:27:21.532Z,1.58
2022-09-28T08:30:07.695Z,1.33
2022-09-28T08:33:07.476Z,1.23
2022-09-28T08:36:02.703Z,1.48
2022-09-28T08:39:14.141Z,1.10
2022-09-28T08:42:41.745Z,1.33
2022-09-28T08:45:48.205Z,1.38
2022-09-28T08:49:25.086Z,1.60
2022-09-28T08:52:40.358Z,1.25
2022-09-28T08:55:45.809Z,1.33
2022-09-28T08:58:37.734Z,1.20
2022-09-28T09:01:27.201Z,1.60
2022-09-28T09:04:13.969Z,1.27
2022-09-28T09:07:31.878Z,1.20
2022-09-28T09:10:34.003Z,1.40
2022-09-28T09:13:55.865Z,1.40
2022-09-28T09:17:01.694Z,1.20
2022-09-28T09:20:30.087Z,1.42
2022-09-28T09:23:29.668Z,1.13
2022-09-28T09:26:22.495Z,0.90
2022-09-28T09:29:32.986Z,0.90
2022-09-28T09:32:47.525Z,0.80
2022-09-28T09:35:42.593Z,0.98
2022-09-28T09:39:18.515Z,1.00
2022-09-28T09:42:49.035Z,0.80
2022-09-28T09:46:12.014Z,0.90
2022-09-28T09:49:26.353Z,0.70
2022-09-28T09:52:18.694Z,0.77
2022-09-28T09:55:14.665Z,0.90
2022-09-28T09:58:38.616Z,0.80
2022-09-28T10:02:03.497Z,0.90
2022-09-28T10:05:07.429Z,0.70
2022-09-28T10:08:02.868Z,0.80
2022-09-28T10:10:54.062Z,0.75
2022-09-28T10:13:41.060Z,0.70
2022-09-28T10:16:48.482Z,0.77
2022-09-28T10:19:43.592Z,1.13
2022-09-28T10:22:49.411Z,0.93
2022-09-28T10:25:39.076Z,0.80
2022-09-28T10:28:50.806Z,0.88
2022-09-28T10:31:48.908Z,0.90
2022-09-28T10:34:50.280Z,0.90
2022-09-28T10:37:59.357Z,0.80
2022-09-28T10:41:17.407Z,0.80
2022-09-28T10:44:18.505Z,1.25
2022-09-28T10:47:31.484Z,1.02
2022-09-28T10:50:28.733Z,1.10
2022-09-28T10:53:21.857Z,0.80
2022-09-28T10:59:28.707Z,0.70
2022-09-28T11:02:36.350Z,0.93
2022-09-28T11:05:31.478Z,0.80
2022-09-28T11:08:24.490Z,0.70
2022-09-28T11:11:15.626Z,0.65
2022-09-28T11:14:03.817Z,0.73
2022-09-28T11:17:16.787Z,0.70
2022-09-28T11:20:27.876Z,0.57
2022-09-28T11:23:24.376Z,0.60
2022-09-28T11:26:18.438Z,0.60
2022-09-28T11:29:08.670Z,0.98
2022-09-28T11:32:06.367Z,0.60
2022-09-28T11:35:07.088Z,0.65
2022-09-28T11:38:37.962Z,0.65
2022-09-28T11:41:45.983Z,0.90
2022-09-28T11:44:44.745Z,0.98
2022-09-28T11:47:33.639Z,0.77
2022-09-28T11:50:45.374Z,0.70
2022-09-28T11:53:50.447Z,0.88
2022-09-28T11:56:41.915Z,0.77
2022-09-28T11:59:33.195Z,0.70
2022-09-28T12:03:03.778Z,0.80
2022-09-28T12:05:56.411Z,0.82
2022-09-28T12:08:54.118Z,3.53
2022-09-28T12:12:15.574Z,4.40
2022-09-28T12:15:14.056Z,2.83
2022-09-28T12:18:13.791Z,1.48
2022-09-28T12:21:25.339Z,1.95
2022-09-28T12:24:17.068Z,3.17
2022-09-28T12:27:20.957Z,3.40
2022-09-28T12:30:12.841Z,2.78
2022-09-28T12:33:15.385Z,3.63
2022-09-28T12:36:17.932Z,3.78
2022-09-28T12:39:18.648Z,4.13
2022-09-28T12:42:29.943Z,2.15
2022-09-28T12:45:24.384Z,1.15
2022-09-28T12:48:36.289Z,1.63
2022-09-28T12:51:41.457Z,1.63
2022-09-28T12:54:56.641Z,2.07
2022-09-28T12:57:45.000Z,2.20
2022-09-28T13:00:40.280Z,1.58
2022-09-28T13:03:57.002Z,1.63
2022-09-28T13:07:19.533Z,1.40
2022-09-28T13:10:12.450Z,2.38
2022-09-28T13:13:34.606Z,2.33
2022-09-28T13:16:29.453Z,2.53
2022-09-28T13:19:20.644Z,2.60
2022-09-28T13:22:47.131Z,2.22
2022-09-28T13:25:36.310Z,2.03
2022-09-28T13:28:26.980Z,1.70
2022-09-28T13:31:20.144Z,1.90
2022-09-28T13:34:07.687Z,2.03
2022-09-28T13:37:29.501Z,2.72
2022-09-28T13:40:15.210Z,3.40
2022-09-28T13:43:24.029Z,2.33
2022-09-28T13:46:23.677Z,3.08
2022-09-28T13:49:18.357Z,4.32
2022-09-28T13:52:32.091Z,2.78
2022-09-28T13:56:03.151Z,3.45
2022-09-28T13:58:55.144Z,4.10
2022-09-28T14:02:07.133Z,3.63
2022-09-28T14:04:55.193Z,5.45
2022-09-28T14:07:40.653Z,4.90
2022-09-28T14:10:47.033Z,4.85
2022-09-28T14:13:41.515Z,4.70
2022-09-28T14:16:32.579Z,6.32
2022-09-28T14:19:26.451Z,3.53
2022-09-28T14:22:30.247Z,2.42
2022-09-28T14:25:24.408Z,4.25
2022-09-28T14:28:29.473Z,2.08
2022-09-28T14:31:24.615Z,2.57
2022-09-28T14:34:25.579Z,1.90
2022-09-28T14:37:58.455Z,1.73
2022-09-28T14:41:15.126Z,1.58
2022-09-28T14:44:16.653Z,1.60
2022-09-28T14:47:49.943Z,1.50
2022-09-28T14:50:35.514Z,1.20
2022-09-28T14:53:24.030Z,0.90
2022-09-28T14:56:09.499Z,0.80
2022-09-28T14:58:58.304Z,0.60
2022-09-28T15:01:50.772Z,0.88
2022-09-28T15:04:46.055Z,0.70
2022-09-28T15:07:53.190Z,0.75
2022-09-28T15:10:50.196Z,0.80
2022-09-28T15:13:35.681Z,0.80
2022-09-28T15:16:26.502Z,0.70
2022-09-28T15:19:30.730Z,0.68
2022-09-28T15:22:20.835Z,0.80
2022-09-28T15:25:14.986Z,1.00
2022-09-28T15:28:22.160Z,0.70
2022-09-28T15:31:17.382Z,0.80
2022-09-28T15:34:22.098Z,0.95
2022-09-28T15:37:11.612Z,0.70
2022-09-28T15:40:00.120Z,1.00
2022-09-28T15:42:48.596Z,1.08
2022-09-28T15:45:39.946Z,1.02
2022-09-28T15:48:40.999Z,1.10
2022-09-28T15:51:28.299Z,1.05
2022-09-28T15:54:19.550Z,0.70
2022-09-28T15:57:07.955Z,1.17
2022-09-28T15:59:59.476Z,1.13
2022-09-28T16:03:32.266Z,1.10
2022-09-28T16:06:18.665Z,1.33
2022-09-28T16:09:04.136Z,1.20
2022-09-28T16:11:50.784Z,1.20
2022-09-28T16:14:36.179Z,0.73
2022-09-28T16:17:33.881Z,1.15
2022-09-28T16:20:36.302Z,1.10
2022-09-28T16:23:33.157Z,0.73
2022-09-28T16:26:29.842Z,1.10
2022-09-28T16:29:40.343Z,0.90
2022-09-28T16:32:25.494Z,1.17
2022-09-28T16:35:10.909Z,0.82
2022-09-28T16:38:23.012Z,0.95
2022-09-28T16:41:09.062Z,0.90
2022-09-28T16:43:59.357Z,0.80
2022-09-28T16:46:52.251Z,0.80
2022-09-28T16:49:39.892Z,0.70
2022-09-28T16:52:43.639Z,0.90
2022-09-28T16:55:39.983Z,1.10
2022-09-28T16:58:27.842Z,0.80
2022-09-28T17:01:16.324Z,1.17
2022-09-28T17:04:01.939Z,1.15
2022-09-28T17:06:49.321Z,1.20
2022-09-28T17:09:37.904Z,1.30
2022-09-28T17:12:28.951Z,1.20
2022-09-28T17:15:15.791Z,1.30
2022-09-28T17:18:01.104Z,1.50
2022-09-28T17:21:03.426Z,2.50
2022-09-28T17:23:50.199Z,2.60
2022-09-28T17:26:36.131Z,1.70
2022-09-28T17:29:23.631Z,3.83
2022-09-28T17:32:17.530Z,3.13
2022-09-28T17:35:23.086Z,2.95
2022-09-28T17:38:18.683Z,2.67
2022-09-28T17:41:04.126Z,2.50
2022-09-28T17:43:49.847Z,2.78
2022-09-28T17:46:40.710Z,2.45
2022-09-28T17:49:26.435Z,2.55
2022-09-28T17:52:11.675Z,3.45
2022-09-28T17:54:56.875Z,3.55
2022-09-28T17:57:42.403Z,3.00
2022-09-28T18:00:28.822Z,2.80
2022-09-28T18:03:24.830Z,2.78
2022-09-28T18:06:25.174Z,2.88
2022-09-28T18:09:16.687Z,2.90
2022-09-28T18:12:04.919Z,2.97
2022-09-28T18:14:50.552Z,2.63
2022-09-28T18:17:36.655Z,2.42
2022-09-28T18:20:22.168Z,2.30
2022-09-28T18:23:07.568Z,2.85
2022-09-28T18:25:56.107Z,3.45
2022-09-28T18:28:42.019Z,3.28
2022-09-28T18:31:27.931Z,3.80
2022-09-28T18:34:13.785Z,3.60
2022-09-28T18:36:59.000Z,2.47
2022-09-28T18:39:45.430Z,4.15
2022-09-28T18:42:37.732Z,7.72
2022-09-28T18:45:23.097Z,7.13
2022-09-28T18:48:08.827Z,10.15
2022-09-28T18:50:54.134Z,8.82
2022-09-28T18:53:43.572Z,10.02
2022-09-28T18:56:29.099Z,8.15
2022-09-28T18:59:17.498Z,12.48
2022-09-28T19:02:03.399Z,10.52
2022-09-28T19:04:48.565Z,9.38
2022-09-28T19:07:35.441Z,12.70
2022-09-28T19:10:22.215Z,15.27
2022-09-28T19:13:07.734Z,12.98
2022-09-28T19:15:56.363Z,9.15
2022-09-28T19:18:41.968Z,7.13
2022-09-28T19:21:27.365Z,6.93
2022-09-28T19:24:18.323Z,8.50
2022-09-28T19:27:03.939Z,7.00
2022-09-28T19:29:50.376Z,9.07
2022-09-28T19:32:42.907Z,9.07
2022-09-28T19:35:28.070Z,7.82
2022-09-28T19:38:13.648Z,7.60
2022-09-28T19:40:59.726Z,7.55
2022-09-28T19:43:44.945Z,8.18
2022-09-28T19:46:33.412Z,7.65
2022-09-28T19:49:22.399Z,6.55
2022-09-28T19:52:15.681Z,8.05
2022-09-28T19:55:01.742Z,6.97
2022-09-28T19:57:47.980Z,7.63
2022-09-28T20:00:34.053Z,16.83
2022-09-28T20:03:38.975Z,10.27
2022-09-28T20:06:25.520Z,9.27
2022-09-28T20:09:11.100Z,6.47
2022-09-28T20:11:57.169Z,5.57
2022-09-28T20:14:42.491Z,4.35
2022-09-28T20:17:28.075Z,4.10
2022-09-28T20:20:13.761Z,4.10
2022-09-28T20:22:59.529Z,4.85
2022-09-28T20:25:45.347Z,3.03
2022-09-28T20:28:31.063Z,3.50
2022-09-28T20:31:19.949Z,3.45
2022-09-28T20:34:06.891Z,2.97
2022-09-28T20:36:52.507Z,3.42
2022-09-28T20:39:41.591Z,3.67
2022-09-28T20:42:31.223Z,3.20
2022-09-28T20:45:16.739Z,4.30
2022-09-28T20:48:07.114Z,3.67
2022-09-28T20:51:04.212Z,4.68
2022-09-28T20:53:55.316Z,3.80
2022-09-28T20:56:41.043Z,4.95
2022-09-28T20:59:31.254Z,5.10
2022-09-28T21:02:20.928Z,4.78
2022-09-28T21:05:07.056Z,3.30
2022-09-28T21:07:52.687Z,3.75
2022-09-28T21:10:38.042Z,4.00
2022-09-28T21:13:24.324Z,3.88
2022-09-28T21:16:16.731Z,3.47
2022-09-28T21:19:03.238Z,4.25
2022-09-28T21:21:48.563Z,3.47
2022-09-28T21:24:34.173Z,4.78
2022-09-28T21:27:19.597Z,3.83
2022-09-28T21:30:05.751Z,3.15
2022-09-28T21:32:52.432Z,3.30
2022-09-28T21:35:41.080Z,3.22
2022-09-28T21:38:26.313Z,3.10
2022-09-28T21:41:11.681Z,3.67
2022-09-28T21:43:57.355Z,3.78
2022-09-28T21:46:43.050Z,3.55
2022-09-28T21:49:28.422Z,3.72
2022-09-28T21:52:13.748Z,3.67
2022-09-28T21:54:59.289Z,4.28
2022-09-28T21:57:51.645Z,4.50
2022-09-28T22:00:36.964Z,4.50
2022-09-28T22:03:22.323Z,5.15
2022-09-28T22:06:08.847Z,5.43
2022-09-28T22:08:54.801Z,5.20
2022-09-28T22:11:43.744Z,5.95
2022-09-28T22:14:29.177Z,6.15
2022-09-28T22:17:14.812Z,6.50
2022-09-28T22:20:00.671Z,6.93
2022-09-28T22:22:50.165Z,6.88
2022-09-28T22:25:35.763Z,7.13
2022-09-28T22:28:21.083Z,6.82
2022-09-28T22:31:09.241Z,5.88
2022-09-28T22:33:56.577Z,7.03
2022-09-28T22:36:42.107Z,6.82
2022-09-28T22:39:27.527Z,5.85
2022-09-28T22:42:13.138Z,7.22
2022-09-28T22:44:58.491Z,7.03
2022-09-28T22:47:43.882Z,6.45
2022-09-28T22:50:29.409Z,7.03
2022-09-28T22:53:15.197Z,7.10
2022-09-28T22:56:01.498Z,6.97
2022-09-28T22:58:46.910Z,7.30
2022-09-28T23:01:32.539Z,7.15
2022-09-28T23:04:19.379Z,7.38
2022-09-28T23:07:04.923Z,7.70
2022-09-28T23:09:53.504Z,8.35
2022-09-28T23:12:38.953Z,8.32
2022-09-28T23:15:25.232Z,8.32
2022-09-28T23:18:10.728Z,8.82
2022-09-28T23:20:58.726Z,8.07
2022-09-28T23:23:46.492Z,8.60
2022-09-28T23:26:34.129Z,10.20
2022-09-28T23:29:19.386Z,10.05
2022-09-28T23:32:04.743Z,9.60
2022-09-28T23:34:50.475Z,9.75
2022-09-28T23:37:36.058Z,10.50
2022-09-28T23:40:21.267Z,10.40
2022-09-28T23:43:07.819Z,10.43
2022-09-28T23:45:53.484Z,11.43
2022-09-28T23:48:38.905Z,10.63
2022-09-28T23:51:24.866Z,11.48
2022-09-28T23:54:10.213Z,11.13
2022-09-28T23:56:55.811Z,11.48
2022-09-28T23:59:41.225Z,11.27
